Time;durP1;ratioP1;P1;durP2;ratioP2;P2;SDS_P1;SDS_P2;PMS_P1;PMS_P2;Temp;Humidity;BMP_temperature;BMP_pressure;BME280_temperature;BME280_humidity;BME280_pressure;Samples;Min_cycle;Max_cycle;Signal;HPM_P1;HPM_P2
2023/07/19 00:00:49;;;;;;;2.57;1.50;;;;;;;17.17;100.00;101975.25;4948682;28;20191;-69
2023/07/19 00:03:14;;;;;;;2.40;2.00;;;;;;;16.98;100.00;101972.63;4947648;28;20199;-69
2023/07/19 00:05:39;;;;;;;5.37;2.37;;;;;;;17.13;100.00;101984.06;4930276;28;20211;-69
2023/07/19 00:08:05;;;;;;;2.00;1.50;;;;;;;16.24;100.00;101856.34;4947098;28;20226;-69
2023/07/19 00:10:31;;;;;;;2.10;1.90;;;;;;;16.98;100.00;101970.78;4948153;28;20618;-69
2023/07/19 00:12:56;;;;;;;3.33;1.80;;;;;;;16.99;100.00;101969.72;4946844;28;20195;-69
2023/07/19 00:15:22;;;;;;;2.60;1.97;;;;;;;16.65;100.00;101908.50;4947773;28;20267;-70
2023/07/19 00:17:48;;;;;;;2.00;1.80;;;;;;;16.92;100.00;101986.00;4947101;28;20707;-69
2023/07/19 00:20:14;;;;;;;1.90;1.80;;;;;;;17.01;100.00;102002.00;4945783;28;20447;-69
2023/07/19 00:22:40;;;;;;;2.30;1.75;;;;;;;17.00;100.00;101986.81;4925235;29;20199;-69
2023/07/19 00:25:06;;;;;;;2.10;1.90;;;;;;;16.65;100.00;101922.88;4942935;28;21002;-69
2023/07/19 00:27:32;;;;;;;2.83;2.40;;;;;;;16.76;100.00;102010.84;4943526;28;20446;-69
2023/07/19 00:29:58;;;;;;;5.23;2.60;;;;;;;17.05;100.00;102030.38;4942827;28;20940;-69
2023/07/19 00:32:24;;;;;;;3.15;2.60;;;;;;;17.09;100.00;101999.06;4940047;28;20237;-69
2023/07/19 00:34:49;;;;;;;2.60;2.10;;;;;;;16.83;100.00;101957.44;4940879;28;20510;-69
2023/07/19 00:37:15;;;;;;;2.00;1.80;;;;;;;16.83;100.00;101981.84;4926477;29;20202;-69
2023/07/19 00:39:48;;;;;;;3.03;2.27;;;;;;;16.81;100.00;101947.91;4945545;28;20190;-69
2023/07/19 00:42:14;;;;;;;3.47;2.30;;;;;;;16.73;100.00;101951.63;4944013;28;20305;-69
2023/07/19 00:44:39;;;;;;;2.30;2.10;;;;;;;16.80;100.00;101957.06;4944720;28;20446;-69
2023/07/19 00:47:05;;;;;;;3.37;2.00;;;;;;;16.47;100.00;101936.28;4943725;28;21004;-69
2023/07/19 00:49:31;;;;;;;2.90;2.17;;;;;;;16.78;100.00;101980.81;4942221;28;20258;-68
2023/07/19 00:52:01;;;;;;;2.97;2.27;;;;;;;16.49;100.00;101921.47;4927125;28;20454;-69
2023/07/19 00:54:26;;;;;;;3.80;2.20;;;;;;;16.59;100.00;101977.91;4924679;28;21043;-70
2023/07/19 00:56:52;;;;;;;3.50;2.17;;;;;;;16.62;100.00;101993.72;4943656;28;20478;-67
2023/07/19 00:59:22;;;;;;;4.47;2.40;;;;;;;16.73;100.00;101994.97;4951806;28;20219;-70
2023/07/19 01:01:48;;;;;;;2.23;2.03;;;;;;;16.72;100.00;101991.44;4945938;28;20451;-69
2023/07/19 01:04:13;;;;;;;2.30;1.90;;;;;;;16.78;100.00;101975.38;4947525;28;20454;-68
2023/07/19 01:06:39;;;;;;;4.13;2.33;;;;;;;16.87;100.00;102014.78;4946766;28;20512;-70
2023/07/19 01:09:04;;;;;;;3.30;2.13;;;;;;;16.77;100.00;101958.31;4928907;29;20186;-70
2023/07/19 01:11:30;;;;;;;2.63;2.30;;;;;;;16.79;100.00;102023.97;4948248;28;20649;-68
2023/07/19 01:13:55;;;;;;;3.40;2.30;;;;;;;16.68;100.00;102030.00;4946017;28;20195;-69
2023/07/19 01:16:21;;;;;;;4.77;2.43;;;;;;;16.94;100.00;102029.13;4948144;28;20221;-68
2023/07/19 01:18:48;;;;;;;2.30;2.10;;;;;;;17.04;100.00;102009.72;4947629;28;20842;-70
2023/07/19 01:21:13;;;;;;;3.17;2.03;;;;;;;17.01;100.00;101991.16;4946551;28;20661;-69
2023/07/19 01:23:39;;;;;;;2.60;2.10;;;;;;;16.92;100.00;101977.00;4943863;28;20454;-69
2023/07/19 01:26:05;;;;;;;3.10;2.50;;;;;;;16.68;100.00;101930.59;4945313;28;20297;-67
2023/07/19 01:28:31;;;;;;;2.50;2.30;;;;;;;16.89;100.00;101950.34;4944047;28;21138;-68
2023/07/19 01:30:56;;;;;;;2.67;2.47;;;;;;;16.85;100.00;101922.84;4941518;28;20885;-69
2023/07/19 01:33:22;;;;;;;3.67;2.23;;;;;;;16.75;100.00;101930.59;4944552;28;20195;-70
2023/07/19 01:35:47;;;;;;;3.13;2.20;;;;;;;16.64;100.00;101890.59;4942279;28;20785;-70
2023/07/19 01:38:13;;;;;;;3.90;2.93;;;;;;;16.60;100.00;101940.81;4941712;28;20218;-69
2023/07/19 01:40:38;;;;;;;3.20;2.90;;;;;;;16.47;100.00;102029.16;4938820;28;20242;-69
2023/07/19 01:43:04;;;;;;;3.23;2.37;;;;;;;16.57;100.00;102050.41;4927821;28;20195;-70
2023/07/19 01:45:29;;;;;;;3.03;2.47;;;;;;;16.38;100.00;102043.13;4940454;28;20211;-70
2023/07/19 01:47:54;;;;;;;3.13;2.80;;;;;;;16.82;100.00;102036.25;4943412;28;20187;-69
2023/07/19 01:50:20;;;;;;;6.73;2.40;;;;;;;16.75;100.00;102032.69;4940080;28;20625;-68
2023/07/19 01:52:45;;;;;;;3.03;2.73;;;;;;;16.82;100.00;102020.81;4942918;28;20625;-70
2023/07/19 01:55:11;;;;;;;4.23;2.53;;;;;;;16.84;100.00;101988.13;4941782;28;20211;-70
2023/07/19 01:57:36;;;;;;;3.53;2.40;;;;;;;16.90;100.00;101968.28;4942190;28;20245;-70
2023/07/19 02:00:03;;;;;;;3.57;2.83;;;;;;;16.35;100.00;101908.19;4941776;28;20194;-70
2023/07/19 02:02:29;;;;;;;3.50;2.73;;;;;;;16.85;100.00;101941.81;4943114;28;20203;-69
2023/07/19 02:04:54;;;;;;;4.00;2.70;;;;;;;16.92;100.00;101948.06;4942063;28;20520;-70
2023/07/19 02:07:20;;;;;;;3.93;2.63;;;;;;;16.67;100.00;101918.09;4943319;28;20569;-69
2023/07/19 02:09:46;;;;;;;3.53;3.07;;;;;;;17.11;100.00;101942.78;4937284;28;20190;-70
2023/07/19 02:12:11;;;;;;;3.57;3.00;;;;;;;16.98;100.00;101918.41;4942772;28;20195;-70
2023/07/19 02:14:37;;;;;;;3.40;2.47;;;;;;;17.01;100.00;101912.56;4945754;28;20454;-68
2023/07/19 02:17:02;;;;;;;7.73;2.87;;;;;;;16.84;100.00;101896.81;4944178;28;20290;-69
2023/07/19 02:19:28;;;;;;;3.80;2.37;;;;;;;16.76;100.00;101888.06;4946369;28;20592;-70
2023/07/19 02:21:53;;;;;;;3.57;2.80;;;;;;;16.83;100.00;101897.00;4941658;28;20246;-70
2023/07/19 02:24:19;;;;;;;4.33;2.90;;;;;;;16.78;100.00;101907.66;4943333;28;20353;-68
2023/07/19 02:26:44;;;;;;;3.80;2.77;;;;;;;16.95;100.00;101919.69;4946227;28;20215;-70
2023/07/19 02:29:10;;;;;;;3.90;2.73;;;;;;;16.91;100.00;101954.50;4946593;28;20191;-70
2023/07/19 02:31:35;;;;;;;4.07;2.83;;;;;;;17.01;100.00;101967.63;4948004;28;20198;-69
2023/07/19 02:34:01;;;;;;;4.07;3.03;;;;;;;17.10;100.00;101966.34;4949647;28;20195;-70
2023/07/19 02:36:27;;;;;;;4.40;2.70;;;;;;;17.03;100.00;101981.78;4945294;28;20207;-70
2023/07/19 02:38:52;;;;;;;4.80;3.40;;;;;;;17.04;100.00;101999.72;4947688;28;20489;-70
2023/07/19 02:41:18;;;;;;;3.60;3.30;;;;;;;16.77;100.00;102028.75;4931657;29;20199;-70
2023/07/19 02:43:43;;;;;;;3.77;2.77;;;;;;;16.52;100.00;102042.09;4944476;28;20195;-69
2023/07/19 02:46:09;;;;;;;3.70;2.80;;;;;;;16.62;100.00;102083.13;4946337;28;20251;-69
2023/07/19 02:48:35;;;;;;;7.00;3.07;;;;;;;16.57;100.00;102053.13;4944274;28;20187;-70
2023/07/19 02:51:00;;;;;;;5.20;3.03;;;;;;;16.73;100.00;102079.78;4938799;28;20198;-69
2023/07/19 02:53:26;;;;;;;4.43;3.10;;;;;;;16.83;100.00;102089.41;4929165;29;20282;-70
2023/07/19 02:55:52;;;;;;;3.40;2.97;;;;;;;16.65;100.00;102054.78;4944712;28;20214;-69
2023/07/19 02:58:17;;;;;;;4.30;3.30;;;;;;;16.54;100.00;102037.28;4942880;28;20564;-69
2023/07/19 03:00:43;;;;;;;5.40;3.93;;;;;;;16.69;100.00;102047.91;4948344;29;20198;-69
2023/07/19 03:03:10;;;;;;;4.63;3.23;;;;;;;16.39;100.00;102033.97;4945046;28;20203;-67
2023/07/19 03:05:42;;;;;;;5.77;3.70;;;;;;;16.74;100.00;102075.19;4948220;28;20474;-67
2023/07/19 03:08:07;;;;;;;2.87;2.60;;;;;;;16.50;100.00;102079.38;4944191;28;20457;-70
2023/07/19 03:10:33;;;;;;;4.03;3.27;;;;;;;16.49;100.00;102086.69;4925289;28;20456;-70
2023/07/19 03:12:58;;;;;;;3.43;2.73;;;;;;;16.55;100.00;102095.00;4942449;28;20198;-68
2023/07/19 03:15:24;;;;;;;4.93;3.03;;;;;;;16.65;100.00;102095.41;4947440;28;20219;-69
2023/07/19 03:17:49;;;;;;;5.10;3.00;;;;;;;16.69;100.00;102078.56;4947680;28;20644;-70
2023/07/19 03:20:15;;;;;;;3.50;3.03;;;;;;;16.20;100.00;102049.16;4946970;28;20191;-69
2023/07/19 03:22:40;;;;;;;4.33;3.03;;;;;;;16.44;100.00;102093.75;4941775;28;20195;-68
2023/07/19 03:25:06;;;;;;;3.67;2.90;;;;;;;16.42;100.00;102112.91;4944150;28;20693;-67
2023/07/19 03:27:31;;;;;;;4.67;3.57;;;;;;;16.39;100.00;102104.38;4943813;28;20185;-68
2023/07/19 03:29:57;;;;;;;3.80;3.40;;;;;;;15.94;100.00;102045.38;4945424;28;25122;-68
2023/07/19 03:32:22;;;;;;;3.10;2.80;;;;;;;16.33;100.00;102118.72;4928247;29;20333;-71
2023/07/19 03:34:48;;;;;;;3.80;2.77;;;;;;;16.29;100.00;102118.31;4947140;28;20199;-69
2023/07/19 03:37:14;;;;;;;2.97;2.40;;;;;;;15.64;100.00;102041.31;4946191;28;20197;-69
2023/07/19 03:39:39;;;;;;;2.63;2.40;;;;;;;15.92;100.00;102060.16;4946011;28;20482;-69
2023/07/19 03:42:05;;;;;;;2.57;2.00;;;;;;;15.97;100.00;102053.09;4944044;28;20226;-69
2023/07/19 03:44:30;;;;;;;3.27;2.40;;;;;;;16.23;100.00;102086.66;4948143;29;20199;-69
2023/07/19 03:46:56;;;;;;;4.00;2.47;;;;;;;16.47;100.00;102068.97;4948074;28;20215;-67
2023/07/19 03:49:21;;;;;;;4.30;2.43;;;;;;;16.24;100.00;102042.28;4950152;28;20191;-70
2023/07/19 03:51:47;;;;;;;3.60;2.63;;;;;;;16.21;100.00;102048.94;4933250;28;20187;-68
2023/07/19 03:54:12;;;;;;;3.20;2.45;;;;;;;16.40;100.00;102070.81;4950136;28;20266;-69
2023/07/19 03:56:38;;;;;;;4.30;2.60;;;;;;;16.27;100.00;102060.81;4945303;28;20245;-67
2023/07/19 03:59:03;;;;;;;3.47;2.40;;;;;;;16.09;100.00;102028.97;4947038;28;20674;-69
2023/07/19 04:01:28;;;;;;;2.73;2.17;;;;;;;16.37;100.00;102034.16;4942194;28;20191;-67
2023/07/19 04:03:54;;;;;;;4.90;2.43;;;;;;;16.21;100.00;102031.88;4925501;29;20191;-69
2023/07/19 04:06:19;;;;;;;2.70;2.23;;;;;;;16.29;100.00;102039.81;4947574;28;20270;-70
2023/07/19 04:08:45;;;;;;;3.63;2.50;;;;;;;16.25;100.00;102033.94;4929244;29;21261;-68
2023/07/19 04:11:10;;;;;;;3.67;2.60;;;;;;;16.10;100.00;101971.06;4931350;29;20199;-69
2023/07/19 04:13:35;;;;;;;4.20;2.10;;;;;;;15.94;100.00;101941.69;4932891;29;20209;-71
2023/07/19 04:16:01;;;;;;;2.90;2.37;;;;;;;16.09;100.00;101974.00;4947174;28;20215;-69
2023/07/19 04:18:26;;;;;;;3.20;1.97;;;;;;;15.99;100.00;102021.22;4946996;28;20230;-68
2023/07/19 04:20:57;;;;;;;2.30;2.10;;;;;;;16.24;100.00;102048.53;4948190;28;20210;-69
2023/07/19 04:23:23;;;;;;;3.80;2.60;;;;;;;16.23;100.00;102057.72;4945722;28;20190;-68
2023/07/19 04:25:50;;;;;;;3.70;2.57;;;;;;;16.13;100.00;102032.06;4926997;29;20469;-68
2023/07/19 04:28:15;;;;;;;4.97;2.53;;;;;;;16.24;100.00;102026.06;4930482;29;20242;-69
2023/07/19 04:30:41;;;;;;;4.10;2.50;;;;;;;15.82;100.00;101950.47;4950934;28;20533;-69
2023/07/19 04:33:08;;;;;;;7.50;2.70;;;;;;;16.27;100.00;102026.47;4949543;28;20531;-68
2023/07/19 04:35:33;;;;;;;5.23;3.03;;;;;;;16.34;100.00;102031.88;4946480;28;20215;-67
2023/07/19 04:37:58;;;;;;;4.50;2.87;;;;;;;15.85;100.00;102032.22;4940581;28;20485;-69
2023/07/19 04:40:24;;;;;;;4.30;3.10;;;;;;;15.81;100.00;102094.03;4914611;28;20279;-69
2023/07/19 04:42:50;;;;;;;3.90;2.70;;;;;;;16.26;100.00;102091.66;4936026;28;20253;-70
2023/07/19 04:45:16;;;;;;;5.60;3.20;;;;;;;16.41;100.00;102096.88;4917967;28;20469;-68
2023/07/19 04:47:41;;;;;;;4.13;2.70;;;;;;;16.13;100.00;102053.72;4940755;28;20294;-69
2023/07/19 04:50:09;;;;;;;5.30;3.00;;;;;;;16.32;100.00;102088.13;4932701;28;20191;-68
2023/07/19 04:52:35;;;;;;;4.20;2.70;;;;;;;16.38;100.00;102076.47;4915913;28;20190;-68
2023/07/19 04:55:07;;;;;;;4.00;3.10;;;;;;;16.10;100.00;102027.91;4940566;28;20505;-70
2023/07/19 04:57:32;;;;;;;3.57;2.90;;;;;;;16.29;100.00;102088.53;4943245;28;20499;-70
2023/07/19 04:59:58;;;;;;;4.50;2.93;;;;;;;16.43;100.00;102084.81;4922175;28;20442;-68
2023/07/19 05:02:24;;;;;;;4.70;2.90;;;;;;;16.22;100.00;102055.19;4932850;28;20326;-68
2023/07/19 05:04:52;;;;;;;4.10;2.87;;;;;;;16.26;100.00;102049.16;4943177;28;20191;-69
2023/07/19 05:07:18;;;;;;;3.43;3.13;;;;;;;16.16;100.00;102027.06;4922895;28;20250;-68
2023/07/19 05:09:44;;;;;;;3.60;3.07;;;;;;;16.38;100.00;102076.47;4919889;28;20442;-68
2023/07/19 05:12:10;;;;;;;3.70;2.73;;;;;;;16.46;100.00;102073.56;4940676;28;20191;-68
2023/07/19 05:14:35;;;;;;;5.97;2.80;;;;;;;16.44;100.00;102032.31;4941932;28;20277;-68
2023/07/19 05:17:01;;;;;;;5.77;2.63;;;;;;;16.45;100.00;102076.47;4921344;29;20481;-69
2023/07/19 05:19:27;;;;;;;4.00;3.47;;;;;;;16.46;100.00;102083.53;4940725;28;20241;-69
2023/07/19 05:21:52;;;;;;;5.87;3.07;;;;;;;16.31;100.00;102055.81;4943587;28;20218;-68
2023/07/19 05:24:17;;;;;;;6.43;3.07;;;;;;;16.60;100.00;102041.03;4943486;28;20668;-68
2023/07/19 05:26:44;;;;;;;4.30;3.73;;;;;;;16.31;100.00;102001.69;4927794;29;20742;-69
2023/07/19 05:29:10;;;;;;;3.73;2.83;;;;;;;16.69;100.00;102051.47;4942052;28;20963;-69
2023/07/19 05:31:35;;;;;;;3.50;2.63;;;;;;;16.70;100.00;102042.28;4943131;28;20442;-69
2023/07/19 05:34:02;;;;;;;2.87;2.57;;;;;;;16.83;100.00;102046.03;4947114;28;20263;-68
2023/07/19 05:36:30;;;;;;;4.00;2.57;;;;;;;16.61;100.00;101983.97;4944802;28;20226;-68
2023/07/19 05:38:55;;;;;;;6.70;3.33;;;;;;;16.36;100.00;101948.56;4941355;28;20504;-70
2023/07/19 05:41:21;;;;;;;4.80;3.80;;;;;;;16.67;100.00;101990.41;4943543;28;20841;-69
2023/07/19 05:43:46;;;;;;;5.57;3.13;;;;;;;16.41;100.00;101970.44;4940452;28;20195;-70
2023/07/19 05:46:12;;;;;;;5.10;3.30;;;;;;;16.46;100.00;101967.94;4920903;28;20214;-69
2023/07/19 05:48:38;;;;;;;4.50;3.10;;;;;;;16.85;100.00;102012.28;4938695;28;20187;-67
2023/07/19 05:51:05;;;;;;;6.20;3.33;;;;;;;16.98;100.00;102013.28;4939670;28;20191;-69
2023/07/19 05:53:31;;;;;;;10.27;3.30;;;;;;;17.05;100.00;101990.53;4946190;28;20673;-68
2023/07/19 05:55:57;;;;;;;7.13;3.90;;;;;;;17.06;100.00;101994.06;4939971;28;20995;-70
2023/07/19 05:58:22;;;;;;;4.07;3.67;;;;;;;17.09;100.00;101982.81;4942889;28;20258;-68
2023/07/19 06:00:48;;;;;;;4.73;2.97;;;;;;;17.04;100.00;101983.47;4945145;28;20571;-69
2023/07/19 06:03:17;;;;;;;3.90;3.10;;;;;;;17.16;100.00;101998.00;4944940;28;20207;-67
2023/07/19 06:05:44;;;;;;;3.50;3.00;;;;;;;16.96;100.00;101996.41;4948805;28;20206;-69
2023/07/19 06:08:12;;;;;;;5.33;2.90;;;;;;;17.05;100.00;102003.25;4945111;28;20460;-69
2023/07/19 06:10:38;;;;;;;3.17;2.87;;;;;;;17.12;100.00;102004.06;4949307;28;20955;-69
2023/07/19 06:13:05;;;;;;;4.80;3.20;;;;;;;17.03;100.00;102016.19;4952461;28;20472;-69
2023/07/19 06:15:31;;;;;;;8.03;3.60;;;;;;;17.05;100.00;102028.50;4930530;28;20521;-69
2023/07/19 06:17:57;;;;;;;5.50;3.63;;;;;;;17.19;100.00;102010.31;4951102;28;20466;-69
2023/07/19 06:20:23;;;;;;;4.70;3.23;;;;;;;17.11;100.00;101986.13;4947730;28;20555;-69
2023/07/19 06:22:49;;;;;;;4.60;3.53;;;;;;;16.86;100.00;101957.03;4950059;28;20206;-69
2023/07/19 06:25:15;;;;;;;3.73;2.97;;;;;;;16.94;100.00;101929.69;4950788;28;20465;-69
2023/07/19 06:27:42;;;;;;;6.13;4.10;;;;;;;16.77;100.00;101923.09;4953941;28;20570;-69
2023/07/19 06:30:09;;;;;;;6.43;4.20;;;;;;;17.06;100.00;101958.84;4945077;28;20814;-70
2023/07/19 06:32:34;;;;;;;4.80;3.70;;;;;;;17.23;100.00;101942.91;4947727;28;20450;-69
2023/07/19 06:35:00;;;;;;;7.10;5.07;;;;;;;17.05;100.00;101919.25;4948907;28;20476;-68
2023/07/19 06:37:25;;;;;;;7.07;4.10;;;;;;;17.20;100.00;101946.91;4950849;28;20885;-69
2023/07/19 06:39:51;;;;;;;6.73;4.60;;;;;;;16.88;100.00;101946.81;4948720;28;20218;-70
2023/07/19 06:42:16;;;;;;;7.40;4.50;;;;;;;17.03;100.00;101961.97;4947452;28;20195;-69
2023/07/19 06:44:42;;;;;;;8.07;4.10;;;;;;;17.39;100.00;101972.25;4949613;28;20234;-69
2023/07/19 06:47:07;;;;;;;5.40;4.07;;;;;;;17.43;100.00;101931.97;4952653;28;20186;-69
2023/07/19 06:49:32;;;;;;;8.90;4.57;;;;;;;17.52;100.00;101892.69;4950034;28;20644;-69
2023/07/19 06:51:58;;;;;;;4.30;3.60;;;;;;;17.44;100.00;101866.66;4949817;28;20191;-69
2023/07/19 06:54:27;;;;;;;6.17;4.20;;;;;;;17.45;100.00;101818.69;4947507;28;21347;-69
2023/07/19 06:56:52;;;;;;;7.90;4.70;;;;;;;17.57;100.00;101803.34;4934536;29;20461;-69
2023/07/19 06:59:18;;;;;;;6.07;3.87;;;;;;;17.47;100.00;101778.59;4934148;28;22257;-69
2023/07/19 07:01:43;;;;;;;8.00;5.03;;;;;;;17.47;100.00;101770.44;4946289;28;20254;-70
2023/07/19 07:04:09;;;;;;;5.33;3.57;;;;;;;17.49;100.00;101746.66;4948555;28;20186;-69
2023/07/19 07:06:35;;;;;;;8.10;4.37;;;;;;;17.47;100.00;101754.19;4940729;28;20214;-70
2023/07/19 07:09:00;;;;;;;4.30;3.60;;;;;;;17.22;100.00;101710.81;4951540;28;20209;-69
2023/07/19 07:11:26;;;;;;;7.53;4.67;;;;;;;17.33;100.00;101742.63;4951718;28;20208;-70
2023/07/19 07:13:51;;;;;;;4.27;3.87;;;;;;;17.45;100.00;101751.69;4933598;29;20194;-70
2023/07/19 07:16:16;;;;;;;8.80;4.10;;;;;;;17.27;100.00;101747.06;4948234;28;20226;-70
2023/07/19 07:18:42;;;;;;;8.67;3.43;;;;;;;17.31;100.00;101744.72;4949179;28;20291;-70
2023/07/19 07:21:07;;;;;;;7.23;2.90;;;;;;;17.22;100.00;101721.66;4945998;28;20199;-70
2023/07/19 07:23:33;;;;;;;4.90;2.90;;;;;;;17.35;100.00;101733.19;4952564;28;20195;-70
2023/07/19 07:25:58;;;;;;;6.83;3.00;;;;;;;17.34;100.00;101707.16;4945762;28;20254;-70
2023/07/19 07:28:24;;;;;;;5.03;2.60;;;;;;;17.31;100.00;101707.59;4926105;28;20180;-69
2023/07/19 07:30:49;;;;;;;5.43;2.70;;;;;;;17.44;100.00;101720.19;4941056;28;20609;-70
2023/07/19 07:33:14;;;;;;;4.20;2.47;;;;;;;17.29;100.00;101698.84;4949156;28;20682;-70
2023/07/19 07:35:40;;;;;;;4.23;2.20;;;;;;;17.28;100.00;101669.25;4950336;28;20365;-70
2023/07/19 07:38:05;;;;;;;4.50;2.50;;;;;;;17.45;100.00;101705.59;4946623;28;20217;-70
2023/07/19 07:40:31;;;;;;;3.07;2.20;;;;;;;17.52;100.00;101716.38;4950697;28;20526;-70
2023/07/19 07:42:56;;;;;;;4.27;1.93;;;;;;;17.58;100.00;101705.44;4950846;28;20551;-70
2023/07/19 07:45:21;;;;;;;6.63;2.20;;;;;;;17.61;100.00;101702.28;4947508;28;20217;-69
2023/07/19 07:47:47;;;;;;;6.10;1.70;;;;;;;17.33;100.00;101661.28;4944965;28;20304;-70
2023/07/19 07:50:13;;;;;;;4.10;2.00;;;;;;;17.49;100.00;101665.28;4923750;28;20669;-70
2023/07/19 07:52:38;;;;;;;5.80;1.83;;;;;;;17.48;100.00;101650.91;4925846;28;20187;-70
2023/07/19 07:55:05;;;;;;;6.20;2.00;;;;;;;17.40;100.00;101611.34;4945148;28;20202;-69
2023/07/19 07:57:33;;;;;;;7.30;2.60;;;;;;;17.50;100.00;101639.81;4937936;28;20195;-69
2023/07/19 08:00:00;;;;;;;2.87;1.70;;;;;;;17.66;100.00;101614.81;4926674;29;20505;-69
2023/07/19 08:02:25;;;;;;;1.90;1.30;;;;;;;17.47;100.00;101600.41;4937812;28;20513;-68
2023/07/19 08:04:52;;;;;;;4.23;1.50;;;;;;;17.44;100.00;101578.34;4936746;28;20208;-68
2023/07/19 08:07:18;;;;;;;4.03;1.40;;;;;;;17.52;100.00;101586.19;4941598;28;20183;-69
2023/07/19 08:09:43;;;;;;;2.33;1.30;;;;;;;17.83;100.00;101621.31;4939032;28;20453;-69
2023/07/19 08:12:09;;;;;;;3.93;1.50;;;;;;;17.89;100.00;101584.28;4941883;28;20668;-70
2023/07/19 08:14:35;;;;;;;3.43;1.90;;;;;;;17.80;100.00;101589.19;4937138;28;20191;-70
2023/07/19 08:17:01;;;;;;;6.10;2.07;;;;;;;17.85;100.00;101585.81;4939990;28;20233;-70
2023/07/19 08:19:26;;;;;;;4.47;1.90;;;;;;;17.82;100.00;101567.28;4928131;28;20478;-70
2023/07/19 08:21:52;;;;;;;4.53;1.70;;;;;;;18.11;100.00;101586.47;4944364;28;20194;-69
2023/07/19 08:24:18;;;;;;;3.77;1.87;;;;;;;17.79;100.00;101527.84;4933662;29;20190;-69
2023/07/19 08:26:43;;;;;;;5.30;1.70;;;;;;;18.15;100.00;101568.69;4941545;28;20221;-70
2023/07/19 08:29:10;;;;;;;3.80;2.10;;;;;;;18.24;100.00;101578.97;4943844;28;20191;-70
2023/07/19 08:31:36;;;;;;;4.57;1.67;;;;;;;18.20;100.00;101585.13;4944494;28;20280;-70
2023/07/19 08:34:02;;;;;;;2.33;1.37;;;;;;;18.47;100.00;101577.38;4925840;28;20447;-70
2023/07/19 08:36:27;;;;;;;3.13;1.77;;;;;;;18.14;100.00;101516.28;4940746;28;20533;-69
2023/07/19 08:38:53;;;;;;;2.90;1.30;;;;;;;18.21;100.00;101508.03;4937345;28;20601;-69
2023/07/19 08:41:23;;;;;;;5.53;1.97;;;;;;;18.66;100.00;101551.78;4933083;28;20191;-69
2023/07/19 08:43:49;;;;;;;4.20;1.80;;;;;;;18.54;100.00;101553.63;4944875;28;20685;-69
2023/07/19 08:46:18;;;;;;;5.20;2.00;;;;;;;18.63;100.00;101541.41;4937879;28;20462;-69
2023/07/19 08:48:50;;;;;;;4.40;2.20;;;;;;;18.77;100.00;101552.03;4938085;28;20443;-69
2023/07/19 08:51:16;;;;;;;4.80;1.90;;;;;;;18.71;100.00;101540.19;4945265;28;20442;-70
2023/07/19 08:53:42;;;;;;;3.77;1.50;;;;;;;18.70;100.00;101542.09;4942204;28;20967;-69
2023/07/19 08:56:08;;;;;;;4.70;1.80;;;;;;;18.67;100.00;101547.19;4942369;28;20466;-69
2023/07/19 08:58:37;;;;;;;6.60;1.70;;;;;;;18.47;100.00;101551.03;4939932;28;20215;-69
2023/07/19 09:01:02;;;;;;;4.10;1.73;;;;;;;18.24;100.00;101548.28;4943479;28;20913;-69
2023/07/19 09:03:28;;;;;;;2.27;1.17;;;;;;;18.41;100.00;101556.59;4943716;28;20454;-70
2023/07/19 09:05:53;;;;;;;3.00;1.60;;;;;;;18.17;100.00;101526.69;4944551;28;20218;-70
2023/07/19 09:08:19;;;;;;;2.40;1.50;;;;;;;17.90;100.00;101471.13;4937842;28;20201;-69
2023/07/19 09:10:45;;;;;;;2.13;1.13;;;;;;;18.37;100.00;101491.06;4945009;28;20194;-70
2023/07/19 09:13:11;;;;;;;3.17;1.07;;;;;;;18.80;100.00;101494.50;4934754;28;20675;-69
2023/07/19 09:15:39;;;;;;;2.40;1.30;;;;;;;18.89;100.00;101477.59;4942865;28;20549;-70
2023/07/19 09:18:05;;;;;;;2.67;1.10;;;;;;;18.63;100.00;101424.56;4946495;28;20972;-69
2023/07/19 09:20:35;;;;;;;1.50;0.97;;;;;;;18.58;100.00;101386.41;4941029;28;20447;-69
2023/07/19 09:23:06;;;;;;;7.13;1.40;;;;;;;18.87;100.00;101444.41;4942659;28;20867;-69
2023/07/19 09:25:33;;;;;;;3.27;1.00;;;;;;;18.70;100.00;101446.16;4946893;29;20496;-69
2023/07/19 09:28:07;;;;;;;5.00;1.30;;;;;;;18.61;100.00;101458.47;4943037;28;20445;-69
2023/07/19 09:30:32;;;;;;;1.57;1.10;;;;;;;18.57;100.00;101458.09;4944079;28;20537;-69
2023/07/19 09:32:59;;;;;;;2.63;1.10;;;;;;;18.36;100.00;101431.53;4944722;29;20894;-70
2023/07/19 09:35:27;;;;;;;4.20;1.00;;;;;;;18.53;100.00;101489.50;4942543;28;20221;-69
2023/07/19 09:37:53;;;;;;;3.67;1.30;;;;;;;18.52;100.00;101485.16;4930073;28;20441;-69
2023/07/19 09:40:19;;;;;;;2.30;1.07;;;;;;;18.45;100.00;101471.66;4937867;28;20509;-69
2023/07/19 09:42:45;;;;;;;2.17;1.00;;;;;;;18.62;100.00;101485.38;4946522;28;20489;-69
2023/07/19 09:45:11;;;;;;;1.83;0.80;;;;;;;18.49;100.00;101477.47;4927146;29;20474;-69
2023/07/19 09:47:39;;;;;;;3.70;1.10;;;;;;;18.45;100.00;101476.28;4942804;28;20534;-69
2023/07/19 09:50:06;;;;;;;6.03;1.10;;;;;;;18.55;100.00;101457.53;4940751;28;20976;-70
2023/07/19 09:52:36;;;;;;;2.60;1.10;;;;;;;18.86;100.00;101448.19;4940227;28;20823;-70
2023/07/19 09:55:03;;;;;;;3.10;1.20;;;;;;;18.63;100.00;101424.56;4940252;28;20548;-70
2023/07/19 09:57:31;;;;;;;3.40;0.80;;;;;;;18.90;100.00;101459.41;4942336;28;20445;-69
2023/07/19 09:59:57;;;;;;;3.53;0.90;;;;;;;18.50;100.00;101390.31;4941872;28;20995;-69
2023/07/19 10:02:23;;;;;;;4.20;1.10;;;;;;;18.39;100.00;101418.28;4942110;28;20446;-70
2023/07/19 10:04:50;;;;;;;6.07;1.03;;;;;;;18.81;100.00;101452.69;4940773;28;20447;-70
2023/07/19 10:07:20;;;;;;;3.20;1.00;;;;;;;18.97;100.00;101428.28;4921254;28;20541;-69
2023/07/19 10:09:50;;;;;;;1.67;0.90;;;;;;;19.04;100.00;101432.78;4943894;28;20438;-69
2023/07/19 10:12:15;;;;;;;2.50;0.90;;;;;;;19.29;100.00;101424.28;4937179;28;20458;-70
2023/07/19 10:14:50;;;;;;;1.33;0.80;;;;;;;18.94;100.00;101433.38;4943716;28;20454;-70
2023/07/19 10:17:16;;;;;;;6.13;1.40;;;;;;;18.61;100.00;101396.78;4928562;29;20278;-69
2023/07/19 10:20:11;;;;;;;2.70;1.00;;;;;;;18.87;100.00;101432.69;4938063;28;20486;-69
2023/07/19 10:22:45;;;;;;;2.40;0.70;;;;;;;19.14;100.00;101441.13;4942769;28;20202;-70
2023/07/19 10:25:15;;;;;;;5.03;1.00;;;;;;;19.05;100.00;101445.31;4923882;28;21011;-69
2023/07/19 10:27:40;;;;;;;1.83;0.83;;;;;;;18.94;100.00;101384.44;4945932;28;20447;-70
2023/07/19 10:30:06;;;;;;;2.40;1.00;;;;;;;18.99;100.00;101430.78;4942989;28;20461;-70
2023/07/19 10:32:32;;;;;;;1.50;0.70;;;;;;;18.99;100.00;101438.09;4938974;28;20199;-70
2023/07/19 10:34:57;;;;;;;1.30;0.80;;;;;;;19.16;100.00;101434.38;4942724;28;20442;-69
2023/07/19 10:37:23;;;;;;;4.47;0.77;;;;;;;19.04;100.00;101436.31;4943293;28;20545;-70
2023/07/19 10:39:48;;;;;;;2.40;0.80;;;;;;;19.26;100.00;101441.09;4934765;28;20375;-69
2023/07/19 10:42:14;;;;;;;3.50;0.90;;;;;;;18.82;100.00;101424.44;4944977;28;20572;-69
2023/07/19 10:44:40;;;;;;;1.93;1.00;;;;;;;19.25;100.00;101413.06;4926189;29;20207;-69
2023/07/19 10:47:06;;;;;;;1.43;0.67;;;;;;;19.08;100.00;101414.91;4944804;28;20219;-69
2023/07/19 10:49:31;;;;;;;1.30;0.70;;;;;;;18.93;100.00;101367.31;4944121;28;20438;-69
2023/07/19 10:51:58;;;;;;;1.40;0.67;;;;;;;19.19;100.00;101398.56;4944361;28;20261;-69
2023/07/19 10:54:25;;;;;;;2.03;0.60;;;;;;;19.24;100.00;101388.81;4947120;28;20202;-67
2023/07/19 10:56:53;;;;;;;1.75;0.70;;;;;;;19.29;100.00;101380.78;4945816;28;20478;-68
2023/07/19 10:59:19;;;;;;;0.93;0.70;;;;;;;19.00;100.00;101323.69;4943006;28;20470;-69
2023/07/19 11:01:48;;;;;;;3.13;0.93;;;;;;;19.13;100.00;101328.81;4946733;28;20530;-69
2023/07/19 11:04:14;;;;;;;1.20;0.83;;;;;;;19.13;100.00;101289.94;4946921;28;20473;-69
2023/07/19 11:06:57;;;;;;;1.90;0.70;;;;;;;19.16;100.00;101295.72;4947185;28;20513;-68
2023/07/19 11:09:22;;;;;;;2.67;0.90;;;;;;;19.23;100.00;101273.78;4942537;28;20229;-68
2023/07/19 11:11:49;;;;;;;1.83;0.80;;;;;;;19.33;100.00;101267.72;4940500;28;20533;-69